Norway House, Canada
Current Conditions -  °F | °C
As of 1:24 PM on Saturday 25 Oct 2014 (Local Time) from CYNE Reporting Station
Light Rain Light Rain  
Wind Chill: 29°   Ceiling: 2600
Heat Index: 37°   Visibility: 8mi
Dew Point: 30°   Wind: 13mph
Humidity: 75%   Direction: 320°NW
Pressure: 29.84"   Gusts: 22mph
Location:  54°N, 97.77°W
Report Text: CYNE 251824Z AUTO 32011G19KT 280V350 8SM -RA BKN026 OVC031 03/M01 A2984 RMK SLP115
Loading
Personal Weather Stations






























Interactive Weather Map
Tropical Storm Tracking
New forecast layout! Learn more

10-Day Weather Forecast

Advertisements
Track Severe Weather on mobile